createdAt,value
2018-08-18T00:00:55.465Z,4.90
2018-08-18T00:03:22.806Z,4.97
2018-08-18T00:05:50.592Z,5.13
2018-08-18T00:08:17.862Z,4.40
2018-08-18T00:10:45.457Z,4.67
2018-08-18T00:13:12.949Z,5.13
2018-08-18T00:15:40.369Z,4.70
2018-08-18T00:18:07.702Z,4.90
2018-08-18T00:20:35.601Z,4.93
2018-08-18T00:23:02.957Z,4.97
2018-08-18T00:25:30.576Z,5.40
2018-08-18T00:28:08.724Z,4.93
2018-08-18T00:30:37.129Z,5.43
2018-08-18T00:33:04.830Z,5.60
2018-08-18T00:35:32.163Z,5.30
2018-08-18T00:37:59.824Z,5.17
2018-08-18T00:40:27.381Z,6.27
2018-08-18T00:42:54.765Z,6.00
2018-08-18T00:45:22.620Z,5.47
2018-08-18T00:47:51.076Z,6.23
2018-08-18T00:50:34.926Z,6.20
2018-08-18T00:53:03.047Z,6.00
2018-08-18T00:55:31.422Z,5.50
2018-08-18T00:57:59.060Z,5.87
2018-08-18T01:00:26.362Z,6.20
2018-08-18T01:02:53.665Z,6.27
2018-08-18T01:05:20.990Z,6.37
2018-08-18T01:07:49.047Z,7.13
2018-08-18T01:10:16.538Z,6.23
2018-08-18T01:12:43.865Z,6.30
2018-08-18T01:15:15.765Z,5.70
2018-08-18T01:17:43.284Z,6.37
2018-08-18T01:20:10.798Z,6.77
2018-08-18T01:22:38.369Z,6.53
2018-08-18T01:25:06.060Z,6.50
2018-08-18T01:27:42.618Z,6.20
2018-08-18T01:30:09.888Z,6.23
2018-08-18T01:32:37.194Z,6.53
2018-08-18T01:35:04.627Z,7.17
2018-08-18T01:37:33.081Z,6.60
2018-08-18T01:40:00.839Z,6.87
2018-08-18T01:42:30.837Z,6.60
2018-08-18T01:44:58.371Z,6.90
2018-08-18T01:47:25.672Z,6.33
2018-08-18T01:49:53.236Z,6.23
2018-08-18T01:52:23.432Z,5.73
2018-08-18T01:54:51.239Z,6.17
2018-08-18T01:57:19.776Z,5.67
2018-08-18T01:59:47.611Z,6.50
2018-08-18T02:02:20.326Z,5.80
2018-08-18T02:04:47.941Z,5.90
2018-08-18T02:07:23.214Z,6.00
2018-08-18T02:09:50.645Z,6.70
2018-08-18T02:12:17.893Z,5.97
2018-08-18T02:14:45.597Z,6.47
2018-08-18T02:17:22.299Z,6.03
2018-08-18T02:19:50.273Z,6.80
2018-08-18T02:22:17.643Z,6.77
2018-08-18T02:24:45.360Z,6.97
2018-08-18T02:27:12.983Z,7.90
2018-08-18T02:29:40.436Z,8.43
2018-08-18T02:32:22.490Z,9.73
2018-08-18T02:34:50.260Z,10.57
2018-08-18T02:37:17.675Z,11.83
2018-08-18T02:39:44.909Z,11.47
2018-08-18T02:42:12.279Z,11.43
2018-08-18T02:44:39.538Z,12.80
2018-08-18T02:47:06.997Z,11.80
2018-08-18T02:49:40.766Z,11.30
2018-08-18T02:52:13.752Z,10.70
2018-08-18T02:54:41.229Z,11.30
2018-08-18T02:57:08.552Z,10.20
2018-08-18T02:59:35.858Z,9.77
2018-08-18T03:02:03.272Z,9.63
2018-08-18T03:04:35.545Z,9.53
2018-08-18T03:07:02.779Z,8.80
2018-08-18T03:09:30.080Z,8.87
2018-08-18T03:11:57.427Z,9.50
2018-08-18T03:14:24.685Z,9.80
2018-08-18T03:16:52.025Z,9.57
2018-08-18T03:19:19.255Z,8.80
2018-08-18T03:21:47.013Z,8.67
2018-08-18T03:24:20.326Z,9.10
2018-08-18T03:26:53.468Z,8.53
2018-08-18T03:29:22.127Z,9.47
2018-08-18T03:31:49.637Z,8.50
2018-08-18T03:34:17.434Z,9.27
2018-08-18T03:36:46.461Z,9.23
2018-08-18T03:39:20.028Z,9.30
2018-08-18T03:41:47.272Z,9.60
2018-08-18T03:44:14.638Z,9.47
2018-08-18T03:46:42.093Z,9.17
2018-08-18T03:49:09.435Z,10.43
2018-08-18T03:51:43.754Z,10.17
2018-08-18T03:54:11.387Z,9.60
2018-08-18T03:56:39.313Z,9.97
2018-08-18T03:59:07.425Z,9.43
2018-08-18T04:02:00.103Z,9.17
2018-08-18T04:04:29.488Z,9.20
2018-08-18T04:06:57.877Z,9.83
2018-08-18T04:09:28.319Z,10.70
2018-08-18T04:11:56.716Z,10.10
2018-08-18T04:14:30.186Z,10.60
2018-08-18T04:16:58.052Z,9.43
2018-08-18T04:19:25.389Z,11.27
2018-08-18T16:29:56.720Z,2.50
2018-08-18T16:32:26.225Z,2.53
2018-08-18T16:35:00.090Z,2.23
2018-08-18T16:37:27.841Z,2.50
2018-08-18T16:39:56.826Z,2.30
2018-08-18T16:42:25.388Z,2.43
2018-08-18T16:44:53.919Z,2.40
2018-08-18T16:47:21.422Z,2.93
2018-08-18T16:49:48.944Z,2.40
2018-08-18T16:52:16.706Z,3.20
2018-08-18T16:54:45.594Z,3.27
2018-08-18T16:57:14.746Z,3.07
2018-08-18T16:59:44.384Z,3.70
2018-08-18T17:02:43.867Z,4.20
2018-08-18T17:05:13.210Z,4.17
2018-08-18T17:07:43.505Z,4.97
2018-08-18T17:10:14.246Z,4.47
2018-08-18T17:12:43.256Z,4.10
2018-08-18T17:15:10.826Z,4.07
2018-08-18T17:17:39.172Z,3.30
2018-08-18T17:20:07.827Z,3.30
2018-08-18T17:22:35.317Z,3.37
2018-08-18T17:25:03.455Z,3.03
2018-08-18T17:27:31.209Z,2.87
2018-08-18T17:30:01.244Z,3.30
2018-08-18T17:32:28.905Z,3.37
2018-08-18T17:34:56.294Z,3.57
2018-08-18T17:37:23.756Z,3.77
2018-08-18T17:39:52.636Z,3.90
2018-08-18T17:42:20.963Z,4.20
2018-08-18T17:44:48.422Z,3.97
2018-08-18T17:47:16.097Z,4.37
2018-08-18T17:50:01.559Z,4.50
2018-08-18T17:52:29.534Z,4.50
2018-08-18T17:55:11.059Z,4.27
2018-08-18T17:57:40.374Z,4.17
2018-08-18T18:00:19.035Z,4.40
2018-08-18T18:02:52.939Z,4.50
2018-08-18T18:05:22.571Z,4.40
2018-08-18T18:07:54.945Z,4.90
2018-08-18T18:10:24.100Z,4.80
2018-08-18T18:12:51.486Z,4.40
2018-08-18T18:15:24.500Z,4.10
2018-08-18T18:17:52.915Z,4.23
2018-08-18T18:20:20.373Z,4.60
2018-08-18T18:22:47.792Z,3.87
2018-08-18T18:25:17.154Z,3.67
2018-08-18T18:27:45.297Z,4.43
2018-08-18T18:30:13.166Z,4.10
2018-08-18T18:32:40.947Z,4.13
2018-08-18T18:35:08.463Z,4.00
2018-08-18T18:37:36.080Z,3.73
2018-08-18T18:40:06.231Z,3.93
2018-08-18T18:42:33.682Z,3.30
2018-08-18T18:45:01.314Z,3.53
2018-08-18T18:47:29.204Z,3.40
2018-08-18T18:49:56.566Z,3.67
2018-08-18T18:52:24.272Z,3.40
2018-08-18T18:54:54.901Z,3.33
2018-08-18T18:57:22.570Z,3.07
2018-08-18T18:59:54.115Z,3.73
2018-08-18T19:02:27.614Z,4.10
2018-08-18T19:04:55.395Z,3.57
2018-08-18T19:07:23.141Z,3.40
2018-08-18T19:09:55.359Z,3.70
2018-08-18T19:12:23.042Z,3.90
2018-08-18T19:14:50.852Z,3.93
2018-08-18T19:17:18.321Z,3.83
2018-08-18T19:19:46.098Z,4.20
2018-08-18T19:22:13.638Z,4.57
2018-08-18T19:24:41.777Z,4.27
2018-08-18T19:27:09.080Z,4.03
2018-08-18T19:29:36.785Z,4.57
2018-08-18T19:32:04.131Z,4.80
2018-08-18T19:34:32.059Z,5.17
2018-08-18T19:37:02.609Z,4.87
2018-08-18T19:39:31.314Z,5.23
2018-08-18T19:42:13.119Z,5.17
2018-08-18T19:44:45.683Z,4.97
2018-08-18T19:47:18.800Z,5.67
2018-08-18T19:49:46.406Z,5.60
2018-08-18T19:52:14.762Z,5.87
2018-08-18T19:54:44.473Z,5.53
2018-08-18T19:57:12.174Z,5.97
2018-08-18T19:59:39.761Z,6.17
2018-08-18T20:02:07.417Z,6.27
2018-08-18T20:04:34.749Z,6.60
2018-08-18T20:07:02.399Z,6.67
2018-08-18T20:09:30.570Z,6.97
2018-08-18T20:11:58.066Z,7.47
2018-08-18T20:14:25.382Z,7.10
2018-08-18T20:16:53.467Z,7.47
2018-08-18T20:19:21.131Z,7.27
2018-08-18T20:21:49.339Z,7.70
2018-08-18T20:24:16.776Z,8.00
2018-08-18T20:26:44.264Z,8.33
2018-08-18T20:29:11.877Z,7.63
2018-08-18T20:32:09.876Z,7.70
2018-08-18T20:34:37.201Z,7.80
2018-08-18T20:37:04.492Z,8.13
2018-08-18T20:39:31.996Z,8.23
2018-08-18T20:41:59.536Z,7.97
2018-08-18T20:44:27.869Z,8.00
2018-08-18T20:46:55.430Z,8.17
2018-08-18T20:49:22.708Z,8.13
2018-08-18T20:51:50.157Z,7.83
2018-08-18T20:54:17.509Z,8.30
2018-08-18T20:56:44.954Z,7.80
2018-08-18T20:59:12.306Z,7.87
2018-08-18T21:01:39.653Z,6.80
2018-08-18T21:04:07.056Z,7.77
2018-08-18T21:06:34.387Z,7.20
2018-08-18T21:09:12.040Z,7.47
2018-08-18T21:11:39.374Z,7.30
2018-08-18T21:14:06.660Z,7.90
2018-08-18T21:16:33.905Z,7.40
2018-08-18T21:19:01.616Z,6.87
2018-08-18T21:21:31.793Z,6.10
2018-08-18T21:23:59.127Z,6.63
2018-08-18T21:26:26.469Z,6.23
2018-08-18T21:28:54.721Z,6.60
2018-08-18T21:31:28.122Z,6.60
2018-08-18T21:33:58.195Z,6.10
2018-08-18T21:36:25.657Z,6.57
2018-08-18T21:38:53.043Z,6.33
2018-08-18T21:41:20.457Z,6.27
2018-08-18T21:43:47.732Z,6.60
2018-08-18T21:46:15.853Z,5.83
2018-08-18T21:48:47.061Z,5.70
2018-08-18T21:51:14.366Z,6.53
2018-08-18T21:53:42.110Z,6.10
2018-08-18T21:56:09.450Z,6.40
2018-08-18T21:58:36.729Z,5.73
2018-08-18T22:01:10.769Z,6.07
2018-08-18T22:03:38.073Z,5.70
2018-08-18T22:06:05.395Z,5.73
2018-08-18T22:08:32.861Z,5.50
2018-08-18T22:11:00.232Z,5.60
2018-08-18T22:13:27.608Z,5.50
2018-08-18T22:15:54.877Z,5.60
2018-08-18T22:18:22.301Z,4.83
2018-08-18T22:20:56.826Z,5.87
2018-08-18T22:23:24.461Z,5.23
2018-08-18T22:25:51.934Z,5.43
2018-08-18T22:28:20.941Z,5.63
2018-08-18T22:30:48.267Z,5.53
2018-08-18T22:33:17.570Z,5.30
2018-08-18T22:35:53.376Z,5.40
2018-08-18T22:38:21.488Z,5.47
2018-08-18T22:40:48.944Z,5.17
2018-08-18T22:43:21.052Z,4.90
2018-08-18T22:45:49.388Z,6.33
2018-08-18T22:48:16.929Z,5.20
2018-08-18T22:50:44.583Z,6.10
2018-08-18T22:53:12.326Z,5.10
2018-08-18T22:55:40.517Z,5.60
2018-08-18T22:58:08.112Z,5.80
2018-08-18T23:00:40.211Z,5.13
2018-08-18T23:03:08.102Z,5.43
2018-08-18T23:05:35.421Z,5.53
2018-08-18T23:08:02.735Z,5.97
2018-08-18T23:10:31.493Z,5.37
2018-08-18T23:13:00.196Z,6.37
2018-08-18T23:15:27.640Z,5.87
2018-08-18T23:17:55.555Z,5.33
2018-08-18T23:20:22.900Z,6.27
2018-08-18T23:22:53.459Z,6.40
2018-08-18T23:25:22.153Z,6.03
2018-08-18T23:27:49.954Z,5.70
2018-08-18T23:30:22.378Z,5.73
2018-08-18T23:32:49.742Z,5.63
2018-08-18T23:35:17.316Z,6.37
2018-08-18T23:37:44.613Z,6.20
2018-08-18T23:40:11.981Z,5.70
2018-08-18T23:42:39.692Z,5.43
2018-08-18T23:45:07.016Z,5.60
2018-08-18T23:47:34.412Z,6.17
2018-08-18T23:50:02.035Z,5.50
2018-08-18T23:52:30.321Z,6.03
2018-08-18T23:54:57.623Z,6.27
2018-08-18T23:57:24.989Z,6.00
2018-08-18T23:59:52.410Z,6.10
